createdAt,value
2018-07-04T00:00:06.334Z,0
2018-07-04T00:00:46.841Z,0
2018-07-04T00:01:27.312Z,0
2018-07-04T00:02:07.823Z,0
2018-07-04T00:02:51.158Z,0
2018-07-04T00:03:31.665Z,0
2018-07-04T00:04:13.942Z,0
2018-07-04T00:04:54.413Z,0
2018-07-04T00:05:34.930Z,0
2018-07-04T00:06:15.403Z,0
2018-07-04T00:06:55.954Z,0
2018-07-04T00:07:37.329Z,0
2018-07-04T00:08:17.827Z,0
2018-07-04T00:08:58.389Z,0
2018-07-04T00:09:38.877Z,0
2018-07-04T00:10:19.358Z,0
2018-07-04T00:10:59.859Z,0
2018-07-04T00:11:40.351Z,0
2018-07-04T00:12:20.850Z,0
2018-07-04T00:13:01.374Z,0
2018-07-04T00:13:41.885Z,0
2018-07-04T00:14:22.416Z,0
2018-07-04T00:15:02.933Z,0
2018-07-04T00:15:43.421Z,0
2018-07-04T00:16:23.978Z,0
2018-07-04T00:17:04.494Z,0
2018-07-04T00:17:44.939Z,0
2018-07-04T00:18:25.467Z,0
2018-07-04T00:19:05.978Z,0
2018-07-04T00:19:46.533Z,0
2018-07-04T00:20:27.029Z,0
2018-07-04T00:21:07.477Z,0
2018-07-04T00:21:47.995Z,0
2018-07-04T00:22:28.522Z,0
2018-07-04T00:23:09.038Z,0
2018-07-04T00:23:50.349Z,0
2018-07-04T00:24:30.811Z,0
2018-07-04T00:25:11.343Z,0
2018-07-04T00:25:51.822Z,0
2018-07-04T00:26:32.336Z,0
2018-07-04T00:27:12.837Z,0
2018-07-04T00:27:53.963Z,0
2018-07-04T00:28:34.440Z,0
2018-07-04T00:29:15.018Z,0
2018-07-04T00:29:56.074Z,0
2018-07-04T00:30:36.566Z,0
2018-07-04T00:31:17.844Z,0
2018-07-04T00:31:58.296Z,0
2018-07-04T00:32:38.822Z,0
2018-07-04T00:33:20.098Z,0
2018-07-04T00:34:00.564Z,0
2018-07-04T00:34:41.084Z,0
2018-07-04T00:35:21.601Z,0
2018-07-04T00:36:02.037Z,0
2018-07-04T00:36:43.459Z,0
2018-07-04T00:37:23.965Z,0
2018-07-04T00:38:04.424Z,0
2018-07-04T00:38:44.961Z,0
2018-07-04T00:39:25.458Z,0
2018-07-04T00:40:05.983Z,0
2018-07-04T00:40:46.439Z,0
2018-07-04T00:41:26.968Z,0
2018-07-04T00:42:07.414Z,0
2018-07-04T00:42:47.877Z,0
2018-07-04T00:43:28.381Z,0
2018-07-04T00:44:08.927Z,0
2018-07-04T00:44:51.237Z,0
2018-07-04T00:45:32.449Z,0
2018-07-04T00:46:12.937Z,0
2018-07-04T00:46:53.439Z,0
2018-07-04T00:47:33.976Z,0
2018-07-04T00:48:14.419Z,0
2018-07-04T00:48:54.928Z,0
2018-07-04T00:49:35.445Z,0
2018-07-04T00:50:16.013Z,0
2018-07-04T00:50:56.484Z,0
2018-07-04T00:51:38.537Z,0
2018-07-04T00:52:19.820Z,0
2018-07-04T00:53:00.286Z,0
2018-07-04T00:53:40.832Z,0
2018-07-04T00:54:21.276Z,0
2018-07-04T00:55:01.821Z,0
2018-07-04T00:55:43.168Z,0
2018-07-04T00:56:23.690Z,0
2018-07-04T00:57:04.995Z,0
2018-07-04T00:57:45.476Z,0
2018-07-04T00:58:25.988Z,0
2018-07-04T00:59:06.483Z,0
2018-07-04T00:59:46.979Z,0
2018-07-04T01:00:27.458Z,0
2018-07-04T01:01:07.918Z,0
2018-07-04T01:01:49.071Z,0
2018-07-04T01:02:29.528Z,0
2018-07-04T01:03:10.060Z,0
2018-07-04T01:03:50.515Z,0
2018-07-04T01:04:31.043Z,0
2018-07-04T01:05:11.509Z,0
2018-07-04T01:05:52.070Z,0
2018-07-04T01:06:32.511Z,0
2018-07-04T01:07:13.007Z,0
2018-07-04T01:07:53.524Z,0
2018-07-04T01:08:34.059Z,0
2018-07-04T01:09:14.528Z,0
2018-07-04T01:09:55.049Z,0
2018-07-04T01:10:35.554Z,0
2018-07-04T01:11:16.064Z,0
2018-07-04T01:11:56.607Z,0
2018-07-04T01:12:37.117Z,0
2018-07-04T01:13:17.571Z,0
2018-07-04T01:13:58.055Z,0
2018-07-04T01:14:38.584Z,0
2018-07-04T01:15:19.078Z,0
2018-07-04T01:16:00.503Z,0
2018-07-04T01:16:40.962Z,0
2018-07-04T01:17:21.456Z,0
2018-07-04T01:18:02.055Z,0
2018-07-04T01:18:42.531Z,0
2018-07-04T01:19:23.074Z,0
2018-07-04T01:20:04.187Z,0
2018-07-04T01:20:44.673Z,0
2018-07-04T01:21:25.154Z,0
2018-07-04T01:22:05.626Z,0
2018-07-04T01:22:46.828Z,0
2018-07-04T01:23:27.339Z,0
2018-07-04T01:24:07.820Z,0
2018-07-04T01:24:48.990Z,0
2018-07-04T01:25:29.493Z,0
2018-07-04T01:26:09.946Z,0
2018-07-04T01:26:50.456Z,0
2018-07-04T01:27:30.976Z,0
2018-07-04T01:28:11.437Z,0
2018-07-04T01:28:51.949Z,0
2018-07-04T01:29:33.005Z,0
2018-07-04T01:30:13.492Z,0
2018-07-04T01:30:54.986Z,0
2018-07-04T01:31:35.459Z,0
2018-07-04T01:32:15.990Z,0
2018-07-04T01:32:57.050Z,0
2018-07-04T01:33:37.539Z,0
2018-07-04T01:34:18.036Z,0
2018-07-04T01:34:58.542Z,0
2018-07-04T01:35:39.015Z,0
2018-07-04T01:36:19.495Z,0
2018-07-04T01:37:00.039Z,0
2018-07-04T01:37:40.506Z,0
2018-07-04T01:38:21.044Z,0
2018-07-04T01:39:01.523Z,0
2018-07-04T01:39:42.025Z,0
2018-07-04T01:40:23.086Z,0
2018-07-04T01:41:03.609Z,0
2018-07-04T01:41:44.109Z,0
2018-07-04T01:42:24.553Z,0
2018-07-04T01:43:06.247Z,0
2018-07-04T01:43:47.048Z,0
2018-07-04T01:44:27.513Z,0
2018-07-04T01:45:08.010Z,0
2018-07-04T01:45:49.181Z,0
2018-07-04T01:46:29.666Z,0
2018-07-04T01:47:12.110Z,0
2018-07-04T01:47:53.284Z,0
2018-07-04T01:48:33.809Z,0
2018-07-04T01:49:14.334Z,0
2018-07-04T01:49:55.601Z,0
2018-07-04T01:50:36.080Z,0
2018-07-04T01:51:17.299Z,0
2018-07-04T01:51:57.768Z,0
2018-07-04T01:52:38.237Z,0
2018-07-04T01:53:18.763Z,0
2018-07-04T01:53:59.303Z,0
2018-07-04T01:54:39.780Z,0
2018-07-04T01:55:20.281Z,0
2018-07-04T01:56:00.754Z,0
2018-07-04T01:56:41.260Z,0
2018-07-04T01:57:21.754Z,0
2018-07-04T01:58:02.268Z,0
2018-07-04T01:58:42.755Z,0
2018-07-04T01:59:23.226Z,0
2018-07-04T02:00:03.791Z,0
2018-07-04T02:00:44.816Z,0
2018-07-04T02:01:25.301Z,0
2018-07-04T02:02:05.762Z,0
2018-07-04T02:02:46.256Z,0
2018-07-04T02:03:26.756Z,0
2018-07-04T02:04:07.262Z,0
2018-07-04T02:04:47.789Z,0
2018-07-04T02:05:28.228Z,0
2018-07-04T02:06:08.702Z,0
2018-07-04T02:06:50.204Z,0
2018-07-04T02:07:31.276Z,0
2018-07-04T02:08:12.721Z,0
2018-07-04T02:08:53.176Z,0
2018-07-04T02:09:34.881Z,0
2018-07-04T02:10:16.367Z,0
2018-07-04T02:10:56.861Z,0
2018-07-04T02:11:37.373Z,0
2018-07-04T02:12:17.895Z,0
2018-07-04T02:12:58.378Z,0
2018-07-04T02:13:39.857Z,0
2018-07-04T02:14:20.355Z,0
2018-07-04T02:15:00.877Z,0
2018-07-04T02:15:41.350Z,0
2018-07-04T02:16:21.851Z,0
2018-07-04T02:17:02.346Z,0
2018-07-04T02:17:44.677Z,0
2018-07-04T02:18:25.208Z,0
2018-07-04T02:19:05.695Z,0
2018-07-04T02:19:46.239Z,0
2018-07-04T02:20:26.674Z,0
2018-07-04T02:21:07.188Z,0
2018-07-04T02:21:48.609Z,0
2018-07-04T02:22:29.134Z,0
2018-07-04T02:23:09.633Z,0
2018-07-04T02:23:50.093Z,0
2018-07-04T02:24:30.595Z,0
2018-07-04T02:25:11.100Z,0
2018-07-04T02:25:51.627Z,0
2018-07-04T02:26:32.103Z,0
2018-07-04T02:27:12.660Z,0
2018-07-04T02:27:53.092Z,0
2018-07-04T02:28:33.587Z,0
2018-07-04T02:29:14.073Z,0
2018-07-04T02:29:55.207Z,0
2018-07-04T02:30:35.721Z,0
2018-07-04T02:31:16.172Z,0
2018-07-04T02:31:56.688Z,0
2018-07-04T02:32:38.833Z,0
2018-07-04T02:33:19.292Z,0
2018-07-04T02:33:59.829Z,0
2018-07-04T02:34:40.287Z,0
2018-07-04T02:35:20.792Z,0
2018-07-04T02:36:01.259Z,0
2018-07-04T02:36:41.735Z,0
2018-07-04T02:37:22.248Z,0
2018-07-04T02:38:02.731Z,0
2018-07-04T02:38:44.007Z,0
2018-07-04T02:39:24.472Z,0
2018-07-04T02:40:04.990Z,0
2018-07-04T02:40:45.496Z,0
2018-07-04T02:41:26.020Z,0
2018-07-04T02:42:06.553Z,0
2018-07-04T02:42:48.023Z,0
2018-07-04T02:43:28.494Z,0
2018-07-04T02:44:09.523Z,0
2018-07-04T02:44:50.069Z,0
2018-07-04T02:45:31.278Z,0
2018-07-04T02:46:11.797Z,4
2018-07-04T02:46:52.287Z,4
2018-07-04T02:47:32.748Z,0
2018-07-04T02:48:13.276Z,0
2018-07-04T02:48:54.310Z,0
2018-07-04T02:49:34.764Z,0
2018-07-04T02:50:15.284Z,4
2018-07-04T02:50:55.811Z,4
2018-07-04T02:51:36.880Z,0
2018-07-04T02:52:17.428Z,0
2018-07-04T02:52:57.884Z,4
2018-07-04T02:53:39.282Z,4
2018-07-04T02:54:19.808Z,4
2018-07-04T02:55:00.286Z,4
2018-07-04T02:55:40.793Z,4
2018-07-04T02:56:22.009Z,4
2018-07-04T02:57:02.521Z,4
2018-07-04T02:57:43.032Z,8
2018-07-04T02:58:23.504Z,4
2018-07-04T02:59:03.979Z,8
2018-07-04T02:59:44.524Z,8
2018-07-04T03:00:25.005Z,8
2018-07-04T03:01:05.518Z,8
2018-07-04T03:01:46.761Z,8
2018-07-04T03:02:28.206Z,12
2018-07-04T03:03:09.618Z,12
2018-07-04T03:03:50.111Z,12
2018-07-04T03:04:30.631Z,12
2018-07-04T03:05:12.023Z,16
2018-07-04T03:05:52.542Z,16
2018-07-04T03:06:33.044Z,20
2018-07-04T03:07:13.582Z,20
2018-07-04T03:07:54.018Z,20
2018-07-04T03:08:34.580Z,24
2018-07-04T03:09:15.061Z,24
2018-07-04T03:09:55.554Z,28
2018-07-04T03:10:37.035Z,28
2018-07-04T03:11:17.527Z,32
2018-07-04T03:11:58.024Z,36
2018-07-04T03:12:38.511Z,36
2018-07-04T03:13:19.025Z,44
2018-07-04T03:13:59.513Z,44
2018-07-04T03:14:40.030Z,52
2018-07-04T03:15:20.518Z,52
2018-07-04T03:16:01.021Z,60
2018-07-04T03:16:41.527Z,64
2018-07-04T03:17:22.221Z,72
2018-07-04T03:18:02.587Z,80
2018-07-04T03:18:43.110Z,84
2018-07-04T03:19:23.611Z,92
2018-07-04T03:20:04.110Z,100
2018-07-04T03:20:44.582Z,108
2018-07-04T03:21:25.079Z,116
2018-07-04T03:22:06.407Z,124
2018-07-04T03:22:46.903Z,132
2018-07-04T03:23:27.433Z,136
2018-07-04T03:24:07.904Z,144
2018-07-04T03:24:48.430Z,148
2018-07-04T03:25:28.904Z,144
2018-07-04T03:26:09.429Z,140
2018-07-04T03:26:49.920Z,136
2018-07-04T03:27:30.924Z,128
2018-07-04T03:28:11.401Z,124
2018-07-04T03:28:51.914Z,128
2018-07-04T03:29:32.385Z,124
2018-07-04T03:30:12.851Z,128
2018-07-04T03:30:53.360Z,132
2018-07-04T03:31:33.858Z,136
2018-07-04T03:32:14.352Z,144
2018-07-04T03:32:55.337Z,148
2018-07-04T03:33:35.767Z,156
2018-07-04T03:34:16.324Z,164
2018-07-04T03:34:56.796Z,168
2018-07-04T03:35:37.268Z,176
2018-07-04T03:36:18.330Z,184
2018-07-04T03:36:58.859Z,196
2018-07-04T03:37:39.396Z,204
2018-07-04T03:38:19.912Z,216
2018-07-04T03:39:00.345Z,228
2018-07-04T03:39:41.645Z,244
2018-07-04T03:40:22.188Z,256
2018-07-04T03:41:02.675Z,272
2018-07-04T03:41:44.148Z,288
2018-07-04T03:42:24.652Z,304
2018-07-04T03:43:05.134Z,324
2018-07-04T03:43:45.598Z,348
2018-07-04T03:44:26.224Z,368
2018-07-04T03:45:06.575Z,392
2018-07-04T03:45:47.646Z,412
2018-07-04T03:46:28.121Z,436
2018-07-04T03:47:08.609Z,460
2018-07-04T03:47:49.114Z,480
2018-07-04T03:48:30.573Z,508
2018-07-04T03:49:11.069Z,528
2018-07-04T03:49:51.650Z,548
2018-07-04T03:50:32.118Z,564
2018-07-04T03:51:13.558Z,584
2018-07-04T03:51:54.250Z,604
2018-07-04T03:52:34.758Z,628
2018-07-04T03:53:15.204Z,652
2018-07-04T03:53:55.736Z,680
2018-07-04T03:54:36.211Z,708
2018-07-04T03:55:17.346Z,736
2018-07-04T03:55:58.604Z,764
2018-07-04T03:56:39.067Z,800
2018-07-04T03:57:20.261Z,832
2018-07-04T03:58:00.834Z,868
2018-07-04T03:58:41.284Z,908
2018-07-04T03:59:22.042Z,948
2018-07-04T04:00:02.410Z,988
2018-07-04T04:00:42.961Z,1040
2018-07-04T04:01:23.378Z,1088
2018-07-04T04:02:04.584Z,1140
2018-07-04T04:02:45.141Z,1192
2018-07-04T04:03:25.544Z,1248
2018-07-04T04:04:06.039Z,1304
2018-07-04T04:04:46.505Z,1372
2018-07-04T04:05:27.003Z,1432
2018-07-04T04:06:07.527Z,1500
2018-07-04T04:06:47.994Z,1560
2018-07-04T04:07:28.495Z,1624
2018-07-04T04:08:09.001Z,1688
2018-07-04T04:08:49.543Z,1752
2018-07-04T04:09:31.693Z,1816
2018-07-04T04:10:12.819Z,1872
2018-07-04T04:10:53.343Z,1932
2018-07-04T04:11:36.686Z,2016
2018-07-04T04:12:17.219Z,2124
2018-07-04T04:12:57.721Z,2172
2018-07-04T04:13:38.206Z,2188
2018-07-04T04:14:18.745Z,2200
2018-07-04T04:14:59.729Z,2244
2018-07-04T04:15:40.273Z,2296
2018-07-04T04:16:20.742Z,2348
2018-07-04T04:17:01.230Z,2404
2018-07-04T04:17:41.735Z,2464
2018-07-04T04:18:22.201Z,2528
2018-07-04T04:19:02.686Z,2588
2018-07-04T04:19:44.507Z,2644
2018-07-04T04:20:25.773Z,2704
2018-07-04T04:21:06.318Z,2764
2018-07-04T04:21:47.365Z,2828
2018-07-04T04:22:27.850Z,2884
2018-07-04T04:23:08.433Z,2932
2018-07-04T04:23:49.878Z,2980
2018-07-04T04:24:30.375Z,3012
2018-07-04T04:25:10.844Z,3048
2018-07-04T04:25:51.292Z,3084
2018-07-04T04:26:31.812Z,3116
2018-07-04T04:27:12.412Z,3152
2018-07-04T04:27:52.809Z,3176
2018-07-04T04:28:33.304Z,3200
2018-07-04T04:29:13.845Z,3236
2018-07-04T04:29:54.326Z,3244
2018-07-04T04:30:34.815Z,3260
2018-07-04T04:31:15.347Z,3280
2018-07-04T04:31:56.559Z,3324
2018-07-04T04:32:37.098Z,3348
2018-07-04T04:33:17.543Z,3300
2018-07-04T04:33:58.104Z,3268
2018-07-04T04:34:38.560Z,3244
2018-07-04T04:35:19.098Z,3248
2018-07-04T04:35:59.541Z,3232
2018-07-04T04:36:40.883Z,3236
2018-07-04T04:37:21.430Z,3152
2018-07-04T04:38:01.944Z,3080
2018-07-04T04:38:42.438Z,3004
2018-07-04T04:39:23.106Z,3096
2018-07-04T04:40:03.517Z,3012
2018-07-04T04:40:44.016Z,3008
2018-07-04T04:41:24.556Z,2920
2018-07-04T04:42:05.054Z,2888
2018-07-04T04:42:46.360Z,2856
2018-07-04T04:43:26.830Z,2940
2018-07-04T04:44:07.398Z,3024
2018-07-04T04:44:49.725Z,3140
2018-07-04T04:45:30.213Z,3116
2018-07-04T04:46:10.694Z,3016
2018-07-04T04:46:51.155Z,2936
2018-07-04T04:47:31.684Z,2916
2018-07-04T04:48:12.126Z,2928
2018-07-04T04:48:52.635Z,2960
2018-07-04T04:49:33.141Z,3012
2018-07-04T04:50:13.668Z,3064
2018-07-04T04:50:54.155Z,3116
2018-07-04T04:51:34.653Z,3156
2018-07-04T04:52:15.799Z,3212
2018-07-04T04:52:56.876Z,3264
2018-07-04T04:53:37.384Z,3316
2018-07-04T04:54:17.848Z,3340
2018-07-04T04:54:58.328Z,3364
2018-07-04T04:55:38.821Z,3388
2018-07-04T04:56:19.333Z,3420
2018-07-04T04:56:59.840Z,3468
2018-07-04T04:57:40.339Z,3524
2018-07-04T04:58:20.863Z,3572
2018-07-04T04:59:01.378Z,3644
2018-07-04T04:59:41.884Z,3692
2018-07-04T05:00:22.371Z,3712
2018-07-04T05:01:02.891Z,3760
2018-07-04T05:01:43.415Z,3808
2018-07-04T05:02:23.908Z,3860
2018-07-04T05:03:04.416Z,3916
2018-07-04T05:03:44.875Z,3980
2018-07-04T05:04:25.388Z,4020
2018-07-04T05:05:06.630Z,4036
2018-07-04T05:05:47.065Z,4064
2018-07-04T05:06:27.628Z,4080
2018-07-04T05:07:08.143Z,4104
2018-07-04T05:07:48.677Z,4128
2018-07-04T05:08:30.002Z,4148
2018-07-04T05:09:11.095Z,4188
2018-07-04T05:09:51.571Z,4220
2018-07-04T05:10:32.147Z,4252
2018-07-04T05:11:12.606Z,4280
2018-07-04T05:11:53.130Z,4320
2018-07-04T05:12:33.610Z,4364
2018-07-04T05:13:14.101Z,4408
2018-07-04T05:13:54.688Z,4472
2018-07-04T05:14:35.119Z,4500
2018-07-04T05:15:15.606Z,4548
2018-07-04T05:15:56.115Z,4576
2018-07-04T05:16:36.607Z,4604
2018-07-04T05:17:17.141Z,4648
2018-07-04T05:17:57.601Z,4728
2018-07-04T05:18:38.117Z,4864
2018-07-04T05:19:18.675Z,4964
2018-07-04T05:19:59.247Z,4940
2018-07-04T05:20:39.751Z,4896
2018-07-04T05:21:20.218Z,4932
2018-07-04T05:22:00.731Z,5056
2018-07-04T05:22:41.279Z,5140
2018-07-04T05:23:21.745Z,5164
2018-07-04T05:24:02.230Z,5212
2018-07-04T05:24:43.694Z,5380
2018-07-04T05:25:24.765Z,5576
2018-07-04T05:26:05.309Z,5608
2018-07-04T05:28:03.585Z,5764
2018-07-04T05:28:44.069Z,5732
2018-07-04T05:29:24.606Z,5648
2018-07-04T05:30:05.106Z,5584
2018-07-04T05:30:46.487Z,5616
2018-07-04T05:31:27.010Z,5656
2018-07-04T05:32:07.443Z,5532
2018-07-04T05:32:47.943Z,5472
2018-07-04T05:33:28.449Z,5440
2018-07-04T05:34:09.816Z,5328
2018-07-04T05:34:50.341Z,5260
2018-07-04T05:35:30.788Z,5152
2018-07-04T05:36:11.311Z,5040
2018-07-04T05:36:51.797Z,4960
2018-07-04T05:37:32.338Z,4872
2018-07-04T05:38:12.808Z,4840
2018-07-04T05:38:53.290Z,4760
2018-07-04T05:39:33.790Z,4712
2018-07-04T05:40:14.276Z,4696
2018-07-04T05:40:56.767Z,4660
2018-07-04T05:41:37.274Z,4652
2018-07-04T05:42:17.758Z,4768
2018-07-04T05:42:58.390Z,4816
2018-07-04T05:43:39.103Z,4868
2018-07-04T05:44:19.612Z,4956
2018-07-04T05:45:00.954Z,5040
2018-07-04T05:45:41.455Z,5108
2018-07-04T05:46:21.955Z,5108
2018-07-04T05:47:02.581Z,5104
2018-07-04T05:47:43.883Z,5108
2018-07-04T05:48:24.993Z,5060
2018-07-04T05:49:05.452Z,5040
2018-07-04T05:49:45.981Z,4976
2018-07-04T05:50:26.530Z,4940
2018-07-04T05:51:07.736Z,4916
2018-07-04T05:51:48.210Z,4892
2018-07-04T05:52:28.758Z,4864
2018-07-04T05:53:09.228Z,4864
2018-07-04T05:53:49.739Z,4892
2018-07-04T05:54:30.223Z,4900
2018-07-04T05:55:10.723Z,4996
2018-07-04T05:55:51.228Z,5052
2018-07-04T05:56:32.554Z,5092
2018-07-04T05:57:13.022Z,5228
2018-07-04T05:57:53.519Z,5300
2018-07-04T05:58:34.089Z,5584
2018-07-04T05:59:14.541Z,5688
2018-07-04T05:59:55.208Z,5832
2018-07-04T06:00:36.425Z,6304
2018-07-04T06:01:16.903Z,6600
2018-07-04T06:01:57.425Z,6608
2018-07-04T06:02:37.925Z,6892
2018-07-04T06:03:18.375Z,7008
2018-07-04T06:03:58.861Z,7144
2018-07-04T06:04:39.335Z,7216
2018-07-04T06:05:19.903Z,7432
2018-07-04T06:06:00.419Z,7628
2018-07-04T06:06:40.837Z,7076
2018-07-04T06:07:21.377Z,6936
2018-07-04T06:08:01.870Z,7064
2018-07-04T06:08:42.357Z,7520
2018-07-04T06:09:22.889Z,8376
2018-07-04T06:10:03.392Z,9156
2018-07-04T06:10:43.921Z,9268
2018-07-04T06:11:24.428Z,9412
2018-07-04T06:12:05.572Z,9564
2018-07-04T06:12:46.965Z,9552
2018-07-04T06:13:27.470Z,9752
2018-07-04T06:14:08.011Z,9788
2018-07-04T06:14:49.067Z,9696
2018-07-04T06:15:29.539Z,9692
2018-07-04T06:16:10.698Z,9728
2018-07-04T06:16:51.267Z,9804
2018-07-04T06:17:32.302Z,9724
2018-07-04T06:18:12.851Z,9816
2018-07-04T06:18:53.368Z,9536
2018-07-04T06:19:33.923Z,9640
2018-07-04T06:20:14.393Z,9580
2018-07-04T06:20:54.903Z,9544
2018-07-04T06:21:35.393Z,9388
2018-07-04T06:22:15.864Z,9264
2018-07-04T06:22:56.387Z,8960
2018-07-04T06:23:36.943Z,8812
2018-07-04T06:24:17.431Z,8400
2018-07-04T06:24:59.579Z,7964
2018-07-04T06:25:40.072Z,7616
2018-07-04T06:26:20.658Z,7332
2018-07-04T06:27:01.095Z,7092
2018-07-04T06:27:41.593Z,6900
2018-07-04T06:28:22.139Z,7036
2018-07-04T06:29:02.730Z,7392
2018-07-04T06:29:43.257Z,7536
2018-07-04T06:30:24.465Z,7700
2018-07-04T06:31:04.999Z,7824
2018-07-04T06:31:45.505Z,8080
2018-07-04T06:32:26.037Z,8264
2018-07-04T06:33:06.529Z,8472
2018-07-04T06:33:46.971Z,8520
2018-07-04T06:34:28.317Z,8856
2018-07-04T06:35:09.738Z,8924
2018-07-04T06:35:50.242Z,9348
2018-07-04T06:36:31.491Z,9696
2018-07-04T06:37:12.082Z,9968
2018-07-04T06:37:52.535Z,10080
2018-07-04T06:38:33.018Z,10332
2018-07-04T06:39:13.556Z,10532
2018-07-04T06:39:54.048Z,10660
2018-07-04T06:40:34.554Z,10476
2018-07-04T06:41:15.061Z,10132
2018-07-04T06:41:55.531Z,10124
2018-07-04T06:42:36.059Z,10316
2018-07-04T06:43:18.295Z,10412
2018-07-04T06:43:58.779Z,10180
2018-07-04T06:44:39.262Z,9968
2018-07-04T06:45:19.799Z,9924
2018-07-04T06:46:00.289Z,9856
2018-07-04T06:46:40.835Z,10264
2018-07-04T06:47:21.314Z,10008
2018-07-04T06:48:01.814Z,10040
2018-07-04T06:48:42.297Z,10136
2018-07-04T06:49:23.734Z,9884
2018-07-04T06:50:04.258Z,10480
2018-07-04T06:50:45.467Z,10496
2018-07-04T06:51:25.916Z,10356
2018-07-04T06:52:06.448Z,10368
2018-07-04T06:52:46.916Z,10452
2018-07-04T06:53:27.450Z,10296
2018-07-04T06:54:08.040Z,10200
2018-07-04T06:54:48.443Z,10072
2018-07-04T06:55:29.009Z,10040
2018-07-04T06:56:09.469Z,10020
2018-07-04T06:56:49.991Z,10228
2018-07-04T06:57:30.503Z,10376
2018-07-04T06:58:11.534Z,10332
2018-07-04T06:58:51.970Z,10184
2018-07-04T06:59:32.513Z,10052
2018-07-04T07:00:13.020Z,9956
2018-07-04T07:00:53.520Z,9444
2018-07-04T07:01:34.029Z,9280
2018-07-04T07:02:14.545Z,9044
2018-07-04T07:02:55.044Z,9016
2018-07-04T07:03:35.539Z,8928
2018-07-04T07:04:16.009Z,8604
2018-07-04T07:04:56.532Z,8524
2018-07-04T07:05:37.773Z,8600
2018-07-04T07:06:18.352Z,8668
2018-07-04T07:06:58.820Z,8744
2018-07-04T07:07:39.347Z,8988
2018-07-04T07:08:20.044Z,9136
2018-07-04T07:09:00.391Z,9072
2018-07-04T07:09:40.874Z,8852
2018-07-04T07:10:21.416Z,9156
2018-07-04T07:11:01.897Z,9260
2018-07-04T07:11:42.408Z,9360
2018-07-04T07:12:22.921Z,9164
2018-07-04T07:13:03.453Z,9044
2018-07-04T07:13:43.911Z,8888
2018-07-04T07:14:24.449Z,8800
2018-07-04T07:15:04.919Z,9032
2018-07-04T07:15:45.402Z,9176
2018-07-04T07:16:25.919Z,9352
2018-07-04T07:17:06.458Z,9148
2018-07-04T07:17:47.015Z,8828
2018-07-04T07:18:27.399Z,8588
2018-07-04T07:19:08.665Z,8456
2018-07-04T07:19:49.261Z,8256
2018-07-04T07:20:29.829Z,8396
2018-07-04T07:21:10.878Z,8892
2018-07-04T07:21:51.967Z,9292
2018-07-04T07:22:33.128Z,9340
2018-07-04T07:23:14.464Z,9332
2018-07-04T07:23:54.987Z,9524
2018-07-04T07:24:35.435Z,9756
2018-07-04T07:25:15.901Z,9852
2018-07-04T07:25:57.058Z,9620
2018-07-04T07:26:37.521Z,9668
2018-07-04T07:27:17.997Z,9628
2018-07-04T07:27:59.013Z,9408
2018-07-04T07:28:40.139Z,9144
2018-07-04T07:29:20.682Z,9124
2018-07-04T07:30:01.119Z,8996
2018-07-04T07:30:41.656Z,8792
2018-07-04T07:31:22.168Z,8884
2018-07-04T07:32:02.720Z,8868
2018-07-04T07:32:43.141Z,8944
2018-07-04T07:33:24.436Z,8960
2018-07-04T07:34:05.639Z,8984
2018-07-04T07:34:46.131Z,8984
2018-07-04T07:35:26.622Z,8996
2018-07-04T07:36:07.142Z,9128
2018-07-04T07:36:48.241Z,9268
2018-07-04T07:37:28.786Z,9292
2018-07-04T07:38:09.379Z,9260
2018-07-04T07:38:49.952Z,9136
2018-07-04T07:39:30.643Z,9116
2018-07-04T07:40:11.999Z,9144
2018-07-04T07:40:53.253Z,9156
2018-07-04T07:41:33.725Z,9036
2018-07-04T07:42:14.289Z,8924
2018-07-04T07:42:54.765Z,8744
2018-07-04T07:43:35.223Z,8720
2018-07-04T07:44:15.734Z,8540
2018-07-04T07:44:57.036Z,8524
2018-07-04T07:45:37.584Z,8268
2018-07-04T07:46:19.050Z,8272
2018-07-04T07:47:00.489Z,8144
2018-07-04T07:47:41.263Z,8140
2018-07-04T07:48:21.768Z,8112
2018-07-04T07:49:02.331Z,7912
2018-07-04T07:49:42.826Z,7796
2018-07-04T07:50:24.150Z,7768
2018-07-04T07:51:05.529Z,7788
2018-07-04T07:51:46.598Z,7680
2018-07-04T07:52:27.831Z,7780
2018-07-04T07:53:08.828Z,7716
2018-07-04T07:53:49.321Z,7712
2018-07-04T07:54:30.022Z,7680
2018-07-04T07:55:10.928Z,7720
2018-07-04T07:55:53.250Z,7628
2018-07-04T07:56:33.787Z,7752
2018-07-04T07:57:14.299Z,7700
2018-07-04T07:57:54.774Z,7680
2018-07-04T07:58:35.298Z,7556
2018-07-04T07:59:15.799Z,7348
2018-07-04T07:59:56.265Z,7400
2018-07-04T08:00:36.997Z,7288
2018-07-04T08:01:17.522Z,7220
2018-07-04T08:01:58.082Z,7232
2018-07-04T08:02:38.553Z,7148
2018-07-04T08:03:19.070Z,6968
2018-07-04T08:03:59.587Z,6852
2018-07-04T08:04:40.107Z,6776
2018-07-04T08:05:21.373Z,6816
2018-07-04T08:06:01.875Z,6828
2018-07-04T08:06:42.368Z,6560
2018-07-04T08:07:22.920Z,6364
2018-07-04T08:08:03.395Z,6276
2018-07-04T08:08:43.897Z,6240
2018-07-04T08:09:24.375Z,6264
2018-07-04T08:10:04.942Z,6372
2018-07-04T08:10:45.381Z,6492
2018-07-04T08:11:25.883Z,6372
2018-07-04T08:12:06.954Z,6320
2018-07-04T08:12:48.308Z,6408
2018-07-04T08:13:28.751Z,6416
2018-07-04T08:14:09.265Z,6384
2018-07-04T08:14:50.608Z,6520
2018-07-04T08:15:31.146Z,6664
2018-07-04T08:16:11.599Z,6664
2018-07-04T08:16:52.189Z,6604
2018-07-04T08:17:32.634Z,6524
2018-07-04T08:18:13.319Z,6376
2018-07-04T08:18:53.798Z,6496
2018-07-04T08:19:35.261Z,6164
2018-07-04T08:20:15.794Z,6084
2018-07-04T08:20:56.311Z,6028
2018-07-04T08:21:36.922Z,6048
2018-07-04T08:22:18.583Z,6172
2018-07-04T08:22:59.892Z,6336
2018-07-04T08:23:41.144Z,6664
2018-07-04T08:24:22.403Z,6688
2018-07-04T08:25:02.920Z,6964
2018-07-04T08:25:43.456Z,7100
2018-07-04T08:26:24.054Z,7296
2018-07-04T08:27:04.515Z,7572
2018-07-04T08:27:45.006Z,7616
2018-07-04T08:28:25.580Z,7676
2018-07-04T08:29:06.101Z,7816
2018-07-04T08:29:46.557Z,7868
2018-07-04T08:30:27.116Z,7648
2018-07-04T08:31:07.668Z,7508
2018-07-04T08:31:48.167Z,7476
2018-07-04T08:32:28.684Z,7368
2018-07-04T08:33:09.139Z,7228
2018-07-04T08:33:49.643Z,7084
2018-07-04T08:34:30.163Z,7020
2018-07-04T08:35:10.690Z,6960
2018-07-04T08:35:51.172Z,6996
2018-07-04T08:36:32.554Z,6860
2018-07-04T08:37:13.878Z,6952
2018-07-04T08:37:55.294Z,6820
2018-07-04T08:38:35.790Z,7192
2018-07-04T08:39:16.523Z,6848
2018-07-04T08:39:57.642Z,7204
2018-07-04T08:40:38.130Z,6996
2018-07-04T08:41:18.648Z,7148
2018-07-04T08:41:59.167Z,7204
2018-07-04T08:42:39.628Z,7308
2018-07-04T08:43:21.108Z,7156
2018-07-04T08:44:02.198Z,7176
2018-07-04T08:44:42.562Z,7240
2018-07-04T08:45:23.052Z,7316
2018-07-04T08:46:03.578Z,7380
2018-07-04T08:46:44.146Z,7428
2018-07-04T08:47:24.689Z,7476
2018-07-04T08:48:05.143Z,8092
2018-07-04T08:48:46.567Z,8140
2018-07-04T08:49:27.072Z,7628
2018-07-04T08:50:07.625Z,7776
2018-07-04T08:50:48.207Z,7916
2018-07-04T08:51:30.306Z,7624
2018-07-04T08:52:10.826Z,7636
2018-07-04T08:52:51.340Z,7652
2018-07-04T08:53:31.731Z,7764
2018-07-04T08:54:13.142Z,7920
2018-07-04T08:54:53.560Z,7580
2018-07-04T08:55:34.074Z,7888
2018-07-04T08:56:14.551Z,7456
2018-07-04T08:56:56.000Z,7372
2018-07-04T08:57:36.477Z,7140
2018-07-04T08:58:16.974Z,7036
2018-07-04T08:58:58.814Z,7252
2018-07-04T08:59:39.303Z,7456
2018-07-04T09:00:19.791Z,7504
2018-07-04T09:01:00.297Z,7544
2018-07-04T09:01:40.783Z,7268
2018-07-04T09:02:21.276Z,7340
2018-07-04T09:03:01.773Z,7432
2018-07-04T09:03:42.423Z,7512
2018-07-04T09:04:22.772Z,7472
2018-07-04T09:05:03.255Z,7392
2018-07-04T09:05:43.809Z,7268
2018-07-04T09:06:24.311Z,7244
2018-07-04T09:07:04.798Z,7164
2018-07-04T09:07:45.279Z,7016
2018-07-04T09:08:27.291Z,6912
2018-07-04T09:09:07.761Z,6844
2018-07-04T09:09:48.298Z,7188
2018-07-04T09:10:28.799Z,7104
2018-07-04T09:11:09.267Z,7212
2018-07-04T09:11:49.960Z,7336
2018-07-04T09:12:30.379Z,7496
2018-07-04T09:13:10.868Z,7608
2018-07-04T09:13:51.331Z,7748
2018-07-04T09:14:31.886Z,7804
2018-07-04T09:15:12.344Z,7720
2018-07-04T09:15:52.873Z,7656
2018-07-04T09:16:33.341Z,7504
2018-07-04T09:17:13.931Z,7332
2018-07-04T09:17:54.438Z,7128
2018-07-04T09:18:35.685Z,6972
2018-07-04T09:19:16.259Z,6696
2018-07-04T09:19:56.737Z,6460
2018-07-04T09:20:37.250Z,6308
2018-07-04T09:21:17.784Z,6172
2018-07-04T09:21:59.066Z,6028
2018-07-04T09:22:40.191Z,5932